Time;durP1;ratioP1;P1;durP2;ratioP2;P2;SDS_P1;SDS_P2;PMS_P1;PMS_P2;Temp;Humidity;BMP_temperature;BMP_pressure;BME280_temperature;BME280_humidity;BME280_pressure;Samples;Min_cycle;Max_cycle;Signal;HPM_P1;HPM_P2
2021/12/04 00:01:12;;;;;;;5.35;2.90;;;1.50;99.90;;;;;;5060731;28;20090;-60
2021/12/04 00:03:39;;;;;;;5.35;2.92;;;1.50;99.90;;;;;;5062211;28;20040;-60
2021/12/04 00:06:13;;;;;;;3.35;2.58;;;1.60;99.90;;;;;;5061830;28;20041;-58
2021/12/04 00:08:43;;;;;;;2.90;2.53;;;1.60;99.90;;;;;;5060421;28;20037;-61
2021/12/04 00:11:09;;;;;;;3.08;2.22;;;1.50;99.90;;;;;;5060034;28;20079;-62
2021/12/04 00:13:35;;;;;;;3.45;2.75;;;1.50;99.90;;;;;;5056715;28;20156;-60
2021/12/04 00:16:00;;;;;;;4.72;2.47;;;1.60;99.90;;;;;;5056421;28;20091;-63
2021/12/04 00:18:26;;;;;;;5.28;3.03;;;1.60;99.90;;;;;;5046925;28;20476;-60
2021/12/04 00:20:51;;;;;;;3.83;2.67;;;1.60;99.90;;;;;;5047298;28;20041;-61
2021/12/04 00:23:17;;;;;;;3.75;3.00;;;1.60;99.90;;;;;;5041754;28;20045;-62
2021/12/04 00:25:43;;;;;;;3.22;2.63;;;1.50;99.90;;;;;;5044356;28;20136;-62
2021/12/04 00:28:08;;;;;;;3.67;2.70;;;1.50;99.90;;;;;;5047496;28;20029;-59
2021/12/04 00:30:35;;;;;;;3.70;2.63;;;1.50;99.90;;;;;;5046036;28;20082;-62
2021/12/04 00:33:05;;;;;;;3.97;2.95;;;1.50;99.90;;;;;;5049918;28;20037;-60
2021/12/04 00:51:15;;;;;;;3.30;2.63;;;1.40;99.90;;;;;;5040104;28;20396;-62
2021/12/04 00:53:41;;;;;;;3.10;2.53;;;1.40;99.90;;;;;;5047705;28;20084;-62
2021/12/04 00:56:07;;;;;;;5.47;2.85;;;1.30;99.90;;;;;;5049398;28;20036;-62
2021/12/04 00:58:32;;;;;;;3.90;2.60;;;1.30;99.90;;;;;;5047148;28;20048;-60
2021/12/04 01:00:58;;;;;;;3.72;2.67;;;1.40;99.90;;;;;;5048701;28;20040;-62
2021/12/04 01:03:24;;;;;;;3.72;2.67;;;1.40;99.90;;;;;;5049280;28;20930;-62
2021/12/04 01:05:50;;;;;;;3.90;2.80;;;1.40;99.90;;;;;;5047076;28;20048;-62
2021/12/04 01:08:16;;;;;;;5.38;2.42;;;1.30;99.90;;;;;;5046779;28;20037;-62
2021/12/04 01:10:42;;;;;;;3.90;2.83;;;1.40;99.90;;;;;;5046538;28;20044;-61
2021/12/04 01:13:11;;;;;;;4.97;2.30;;;1.40;99.90;;;;;;5044856;28;20036;-62
2021/12/04 01:15:38;;;;;;;3.15;2.20;;;1.40;99.90;;;;;;5043591;28;20563;-61
2021/12/04 01:18:04;;;;;;;3.50;2.70;;;1.40;99.90;;;;;;5045223;28;20145;-61
2021/12/04 01:20:30;;;;;;;5.55;2.70;;;1.30;99.90;;;;;;5038802;28;20117;-61
2021/12/04 01:22:55;;;;;;;4.00;2.30;;;1.40;99.90;;;;;;5046181;28;20056;-61
2021/12/04 01:25:21;;;;;;;2.40;2.05;;;1.40;99.90;;;;;;5044247;28;20083;-62
2021/12/04 01:27:47;;;;;;;3.33;2.53;;;1.40;99.90;;;;;;5048670;28;20132;-59
2021/12/04 01:30:13;;;;;;;4.80;2.10;;;1.40;99.90;;;;;;5042581;28;20120;-60
2021/12/04 01:32:39;;;;;;;2.03;1.83;;;1.40;99.90;;;;;;5044502;28;20047;-62
2021/12/04 01:35:05;;;;;;;3.25;2.03;;;1.40;99.90;;;;;;5045701;28;20458;-61
2021/12/04 01:37:30;;;;;;;3.40;2.10;;;1.40;99.90;;;;;;5043488;28;20049;-62
2021/12/04 01:39:56;;;;;;;1.88;1.65;;;1.50;99.90;;;;;;5046057;28;20043;-60
2021/12/04 01:42:22;;;;;;;2.67;1.90;;;1.50;99.90;;;;;;5047563;28;20124;-62
2021/12/04 01:44:49;;;;;;;2.50;1.77;;;1.60;99.90;;;;;;5045755;28;20489;-60
2021/12/04 01:47:19;;;;;;;2.60;2.17;;;1.50;99.90;;;;;;5047340;28;20037;-61
2021/12/04 01:49:44;;;;;;;5.47;2.30;;;1.50;99.90;;;;;;5045274;28;20040;-62
2021/12/04 01:52:10;;;;;;;2.90;1.70;;;1.50;99.90;;;;;;5048545;28;20044;-61
2021/12/04 01:54:36;;;;;;;2.78;2.10;;;1.50;99.90;;;;;;5045242;28;20429;-61
2021/12/04 01:57:03;;;;;;;2.58;1.83;;;1.50;99.90;;;;;;5048520;28;20045;-60
2021/12/04 01:59:29;;;;;;;2.33;1.90;;;1.60;99.90;;;;;;5047514;28;20048;-60
2021/12/04 02:01:58;;;;;;;2.03;1.80;;;1.60;99.90;;;;;;5044713;28;20516;-57
2021/12/04 02:04:24;;;;;;;2.58;1.80;;;1.70;99.90;;;;;;5040350;28;20041;-62
2021/12/04 02:06:49;;;;;;;3.13;1.90;;;1.70;99.90;;;;;;5045718;28;20056;-61
2021/12/04 02:09:15;;;;;;;2.50;1.60;;;1.70;99.90;;;;;;5045489;28;20396;-61
2021/12/04 02:11:41;;;;;;;3.47;1.70;;;1.80;99.90;;;;;;5046434;28;20240;-61
2021/12/04 02:14:07;;;;;;;3.70;1.63;;;1.80;99.90;;;;;;5042878;28;20037;-63
2021/12/04 02:16:33;;;;;;;3.35;1.95;;;1.80;99.90;;;;;;5045977;28;20041;-61
2021/12/04 02:18:59;;;;;;;1.95;1.67;;;1.80;99.90;;;;;;5045737;28;20043;-60
2021/12/04 02:21:26;;;;;;;2.13;1.63;;;1.80;99.90;;;;;;5045642;28;20041;-61
2021/12/04 02:23:53;;;;;;;3.90;1.58;;;1.80;99.90;;;;;;5042738;28;20036;-62
2021/12/04 02:26:19;;;;;;;2.67;2.10;;;1.80;99.90;;;;;;5047597;28;20079;-61
2021/12/04 02:28:46;;;;;;;2.22;1.88;;;1.80;99.90;;;;;;5046092;28;20048;-63
2021/12/04 02:31:12;;;;;;;2.15;1.60;;;1.90;99.90;;;;;;5043400;28;20033;-62
2021/12/04 02:33:38;;;;;;;1.80;1.40;;;1.80;99.90;;;;;;5041859;28;20091;-62
2021/12/04 02:36:06;;;;;;;1.70;1.42;;;1.90;99.90;;;;;;5044746;28;20045;-60
2021/12/04 02:38:33;;;;;;;2.20;1.52;;;1.90;99.90;;;;;;5044184;28;20096;-62
2021/12/04 02:41:00;;;;;;;1.75;1.45;;;1.90;99.90;;;;;;5046706;28;20511;-62
2021/12/04 02:43:27;;;;;;;3.42;1.80;;;2.00;99.90;;;;;;5045728;28;20096;-61
2021/12/04 02:45:53;;;;;;;1.52;1.35;;;1.90;99.90;;;;;;5046024;28;20045;-61
2021/12/04 02:48:19;;;;;;;2.05;1.60;;;1.90;99.90;;;;;;5045078;28;20041;-61
2021/12/04 02:50:46;;;;;;;2.30;1.52;;;1.90;99.90;;;;;;5045126;28;20037;-61
2021/12/04 02:53:11;;;;;;;1.90;1.40;;;2.00;99.90;;;;;;5044407;28;20064;-61
2021/12/04 02:55:37;;;;;;;3.92;1.85;;;1.90;99.90;;;;;;5045572;28;20488;-62
2021/12/04 02:58:03;;;;;;;1.63;1.33;;;2.00;99.90;;;;;;5046746;28;20061;-61
2021/12/04 03:00:31;;;;;;;1.75;1.13;;;2.00;99.90;;;;;;5044435;28;20044;-61
2021/12/04 03:02:57;;;;;;;1.30;1.20;;;1.90;99.90;;;;;;5050197;28;20515;-59
2021/12/04 03:05:26;;;;;;;2.05;1.05;;;2.00;99.90;;;;;;5043597;28;20126;-59
2021/12/04 03:07:53;;;;;;;2.17;1.40;;;2.00;99.90;;;;;;5046308;28;20719;-63
2021/12/04 03:10:20;;;;;;;1.52;1.33;;;1.90;99.90;;;;;;5044104;28;20037;-62
2021/12/04 03:12:46;;;;;;;2.05;1.30;;;1.90;99.90;;;;;;5047079;28;20048;-62
2021/12/04 03:15:12;;;;;;;2.80;1.52;;;1.90;99.90;;;;;;5040893;28;20040;-61
2021/12/04 03:17:38;;;;;;;1.48;1.30;;;1.90;99.90;;;;;;5048155;28;20049;-62
2021/12/04 03:20:05;;;;;;;2.15;1.20;;;2.00;99.90;;;;;;5044369;28;20484;-61
2021/12/04 03:22:31;;;;;;;1.98;1.30;;;1.90;99.90;;;;;;5039596;28;20037;-60
2021/12/04 03:24:58;;;;;;;2.25;1.25;;;2.00;99.90;;;;;;5041215;28;20049;-62
2021/12/04 03:27:25;;;;;;;1.55;1.13;;;1.90;99.90;;;;;;5046719;28;20041;-60
2021/12/04 03:29:59;;;;;;;1.90;1.13;;;1.90;99.90;;;;;;5045174;28;20077;-62
2021/12/04 03:43:04;;;;;;;1.58;1.40;;;1.90;99.90;;;;;;5037233;28;20029;-62
2021/12/04 03:45:30;;;;;;;2.00;1.63;;;1.90;99.90;;;;;;5043511;28;20193;-61
2021/12/04 03:48:04;;;;;;;1.98;1.00;;;1.90;99.90;;;;;;5047510;28;20131;-61
2021/12/04 03:50:30;;;;;;;1.42;1.30;;;1.90;99.90;;;;;;5044411;28;20041;-62
2021/12/04 03:52:56;;;;;;;1.08;0.85;;;1.90;99.90;;;;;;5045558;28;21605;-61
2021/12/04 03:55:21;;;;;;;1.98;1.45;;;2.00;99.90;;;;;;5043441;28;20099;-60
2021/12/04 03:57:47;;;;;;;1.58;1.13;;;2.00;99.90;;;;;;5050152;28;20037;-61
2021/12/04 04:00:15;;;;;;;1.67;1.27;;;2.00;99.90;;;;;;5046714;28;20032;-61
2021/12/04 04:02:41;;;;;;;1.60;1.08;;;2.00;99.90;;;;;;5052366;28;20033;-62
2021/12/04 04:05:07;;;;;;;2.00;1.30;;;2.10;99.90;;;;;;5047048;28;20043;-61
2021/12/04 04:07:33;;;;;;;2.13;1.40;;;2.10;99.90;;;;;;5050465;28;20134;-59
2021/12/04 04:09:58;;;;;;;2.38;1.50;;;2.00;99.90;;;;;;5047851;28;20087;-62
2021/12/04 04:12:24;;;;;;;1.95;1.60;;;1.90;99.90;;;;;;5049312;28;20516;-63
2021/12/04 04:14:50;;;;;;;4.20;1.70;;;2.00;99.90;;;;;;5045110;28;20452;-61
2021/12/04 04:17:15;;;;;;;2.22;1.80;;;2.00;99.90;;;;;;5049462;28;20409;-63
2021/12/04 04:19:41;;;;;;;2.83;1.90;;;1.90;99.90;;;;;;5048970;28;20033;-62
2021/12/04 04:22:08;;;;;;;3.55;2.10;;;1.80;99.90;;;;;;5046521;28;20489;-60
2021/12/04 04:24:34;;;;;;;2.67;2.10;;;1.80;99.90;;;;;;5042168;28;20037;-62
2021/12/04 04:27:00;;;;;;;3.03;2.55;;;1.80;99.90;;;;;;5045732;28;20619;-61
2021/12/04 04:29:26;;;;;;;4.85;2.20;;;1.70;99.90;;;;;;5043793;28;20098;-63
2021/12/04 04:31:54;;;;;;;2.90;2.15;;;1.70;99.90;;;;;;5049276;28;20036;-59
2021/12/04 04:34:25;;;;;;;3.30;2.58;;;1.80;99.90;;;;;;5052629;28;20037;-59
2021/12/04 04:37:06;;;;;;;4.15;2.15;;;1.80;99.90;;;;;;5049564;28;20045;-60
2021/12/04 04:59:06;;;;;;;4.35;2.53;;;1.90;99.90;;;;;;5046904;28;20441;-61
2021/12/04 05:02:41;;;;;;;4.03;2.55;;;1.80;99.90;;;;;;5042624;28;20095;-61
2021/12/04 05:10:20;;;;;;;4.22;2.80;;;1.90;99.90;;;;;;5046385;28;20040;-61
2021/12/04 05:13:06;;;;;;;3.65;2.50;;;1.90;99.90;;;;;;5043812;28;20108;-62
2021/12/04 05:21:03;;;;;;;5.97;4.07;;;1.80;99.90;;;;;;5047956;28;20621;-62
2021/12/04 05:23:34;;;;;;;7.25;4.50;;;1.80;99.90;;;;;;5047309;28;20072;-62
2021/12/04 05:26:00;;;;;;;8.32;4.90;;;1.70;99.90;;;;;;5046055;28;20045;-61
2021/12/04 05:28:26;;;;;;;5.13;3.53;;;1.70;99.90;;;;;;5045897;28;20037;-61
2021/12/04 05:30:52;;;;;;;9.80;6.47;;;1.70;99.90;;;;;;5047741;28;20455;-62
2021/12/04 05:33:18;;;;;;;10.65;6.20;;;1.70;99.90;;;;;;5043264;28;20045;-63
2021/12/04 05:35:47;;;;;;;9.18;4.55;;;1.80;99.90;;;;;;5046089;28;20607;-60
2021/12/04 05:38:17;;;;;;;14.77;8.55;;;1.80;99.90;;;;;;5045649;28;20048;-62
2021/12/04 05:40:44;;;;;;;8.95;5.10;;;1.80;99.90;;;;;;5044444;28;20036;-61
2021/12/04 05:43:10;;;;;;;8.55;5.22;;;1.70;99.90;;;;;;5045025;28;20681;-62
2021/12/04 05:45:44;;;;;;;6.60;4.30;;;1.80;99.90;;;;;;5060299;28;20056;-62
2021/12/04 05:48:55;;;;;;;4.25;3.05;;;1.80;99.90;;;;;;5047467;28;20045;-62
2021/12/04 05:53:43;;;;;;;4.22;3.17;;;1.70;99.90;;;;;;5042168;28;20056;-60
2021/12/04 05:56:09;;;;;;;4.57;3.30;;;1.60;99.90;;;;;;5043910;28;20036;-63
2021/12/04 05:58:34;;;;;;;5.40;3.47;;;1.60;99.90;;;;;;5057047;28;20055;-61
2021/12/04 06:01:04;;;;;;;3.85;2.70;;;1.60;99.90;;;;;;5042690;28;20104;-60
2021/12/04 06:03:30;;;;;;;22.30;10.95;;;1.60;99.90;;;;;;5044405;28;20168;-61
2021/12/04 06:05:56;;;;;;;6.63;4.18;;;1.60;99.90;;;;;;5046772;28;20591;-60
2021/12/04 06:08:22;;;;;;;18.70;9.27;;;1.60;99.90;;;;;;5045136;28;20183;-62
2021/12/04 06:10:49;;;;;;;13.90;6.85;;;1.60;99.90;;;;;;5044575;28;20128;-60
2021/12/04 06:13:16;;;;;;;16.10;8.10;;;1.70;99.90;;;;;;5043736;28;20469;-61
2021/12/04 06:15:42;;;;;;;34.50;15.15;;;1.70;99.90;;;;;;5043939;28;20065;-62
2021/12/04 06:18:08;;;;;;;7.82;3.90;;;1.80;99.90;;;;;;5045791;28;20151;-65
2021/12/04 06:23:22;;;;;;;6.53;3.30;;;1.80;99.90;;;;;;5043203;28;20505;-63
2021/12/04 06:25:49;;;;;;;5.10;3.40;;;1.90;99.90;;;;;;5046070;28;20390;-60
2021/12/04 06:28:15;;;;;;;4.20;2.63;;;1.90;99.90;;;;;;5046033;28;20060;-61
2021/12/04 06:30:43;;;;;;;4.75;3.00;;;1.90;99.90;;;;;;5043775;28;20037;-64
2021/12/04 06:33:12;;;;;;;4.32;3.22;;;1.90;99.90;;;;;;5046031;28;20033;-65
2021/12/04 06:35:41;;;;;;;4.68;3.28;;;1.90;99.90;;;;;;5045923;28;20102;-64
2021/12/04 06:38:11;;;;;;;7.53;3.13;;;1.90;99.90;;;;;;5038603;28;20488;-63
2021/12/04 06:40:38;;;;;;;5.47;3.58;;;1.80;99.90;;;;;;5042700;28;20058;-66
2021/12/04 06:43:06;;;;;;;4.88;2.97;;;1.90;99.90;;;;;;5041513;28;20138;-68
2021/12/04 06:45:34;;;;;;;7.90;4.07;;;1.80;99.90;;;;;;5043409;28;20138;-63
2021/12/04 06:48:13;;;;;;;5.10;3.28;;;1.80;99.90;;;;;;5047397;28;20045;-62
2021/12/04 06:51:03;;;;;;;4.88;2.97;;;1.80;99.90;;;;;;5044974;28;20048;-62
2021/12/04 06:53:44;;;;;;;5.65;3.55;;;1.90;99.90;;;;;;5038811;28;20064;-57
2021/12/04 06:56:11;;;;;;;4.50;2.72;;;1.90;99.90;;;;;;5046654;28;20057;-62
2021/12/04 06:58:38;;;;;;;4.35;2.63;;;1.90;99.90;;;;;;5044402;28;20835;-59
2021/12/04 07:01:06;;;;;;;3.47;2.20;;;1.90;99.90;;;;;;5023088;28;20129;-61
2021/12/04 07:03:31;;;;;;;3.75;2.67;;;1.90;99.90;;;;;;5047581;28;20041;-61
2021/12/04 07:05:57;;;;;;;4.05;2.78;;;1.90;99.90;;;;;;5046908;28;20048;-60
2021/12/04 07:08:23;;;;;;;3.70;2.50;;;1.90;99.90;;;;;;5045424;28;20032;-61
2021/12/04 07:10:48;;;;;;;3.28;2.22;;;1.90;99.90;;;;;;5043766;28;20045;-60
2021/12/04 07:13:14;;;;;;;3.97;2.45;;;1.90;99.90;;;;;;5044947;28;20079;-62
2021/12/04 07:15:43;;;;;;;4.28;2.55;;;1.90;99.90;;;;;;5046823;28;20105;-62
2021/12/04 07:18:09;;;;;;;2.70;2.03;;;2.00;99.90;;;;;;5034777;28;20076;-61
2021/12/04 07:20:34;;;;;;;3.58;2.30;;;2.00;99.90;;;;;;5044045;28;20039;-62
2021/12/04 07:23:00;;;;;;;2.60;1.85;;;2.00;99.90;;;;;;5042969;28;20045;-62
2021/12/04 07:25:26;;;;;;;2.60;2.00;;;2.00;99.90;;;;;;5042621;28;20127;-61
2021/12/04 07:27:52;;;;;;;2.22;1.75;;;2.00;99.90;;;;;;5044681;28;20045;-61
2021/12/04 07:30:19;;;;;;;1.80;1.45;;;2.10;99.90;;;;;;5046497;28;20378;-62
2021/12/04 07:32:46;;;;;;;2.60;1.92;;;2.10;99.90;;;;;;5047317;28;20477;-61
2021/12/04 07:35:12;;;;;;;2.95;2.20;;;2.10;99.90;;;;;;5039299;28;20033;-61
2021/12/04 07:37:38;;;;;;;2.58;1.80;;;2.10;99.90;;;;;;5045967;28;20045;-62
2021/12/04 07:40:04;;;;;;;2.55;1.95;;;2.10;99.90;;;;;;5046178;28;20025;-60
2021/12/04 07:42:30;;;;;;;3.53;2.40;;;2.10;99.90;;;;;;5046328;28;20115;-59
2021/12/04 07:44:55;;;;;;;3.13;2.10;;;2.00;99.90;;;;;;5044171;28;20124;-60
2021/12/04 07:47:21;;;;;;;2.70;2.13;;;2.10;99.90;;;;;;5049433;28;20045;-60
2021/12/04 07:49:47;;;;;;;4.20;2.83;;;2.00;99.90;;;;;;5045976;28;20080;-59
2021/12/04 07:52:13;;;;;;;3.00;2.17;;;1.90;99.90;;;;;;5047760;28;20037;-61
2021/12/04 07:54:38;;;;;;;4.93;3.13;;;1.80;99.90;;;;;;5044250;28;20048;-58
2021/12/04 07:57:04;;;;;;;4.47;3.13;;;1.80;99.90;;;;;;5047847;28;20041;-58
2021/12/04 07:59:30;;;;;;;3.67;2.65;;;1.80;99.90;;;;;;5044164;28;20101;-59
2021/12/04 08:01:57;;;;;;;5.00;3.22;;;1.90;99.90;;;;;;5048721;28;20041;-60
2021/12/04 08:04:24;;;;;;;3.95;2.92;;;1.80;99.90;;;;;;5042576;28;20048;-56
2021/12/04 08:06:51;;;;;;;9.45;5.22;;;1.80;99.90;;;;;;5047700;28;20044;-60
2021/12/04 08:09:17;;;;;;;11.52;6.03;;;1.80;99.90;;;;;;5045335;28;20037;-60
2021/12/04 08:11:43;;;;;;;8.38;5.30;;;1.80;99.90;;;;;;5045733;28;20041;-59
2021/12/04 08:14:08;;;;;;;21.35;10.57;;;1.90;99.90;;;;;;5042634;28;20064;-58
2021/12/04 08:16:35;;;;;;;8.02;4.93;;;1.90;99.90;;;;;;5048024;28;20041;-59
2021/12/04 08:19:01;;;;;;;9.77;5.45;;;1.90;99.90;;;;;;5045064;28;20045;-59
2021/12/04 08:21:27;;;;;;;10.23;5.50;;;2.00;99.90;;;;;;5040976;28;20059;-59
2021/12/04 08:23:52;;;;;;;7.10;4.70;;;2.00;99.90;;;;;;5040907;28;20417;-56
2021/12/04 08:26:19;;;;;;;8.13;5.15;;;2.00;99.90;;;;;;5046210;28;20036;-57
2021/12/04 08:28:45;;;;;;;9.32;5.72;;;2.10;99.90;;;;;;5043812;28;20040;-58
2021/12/04 08:31:11;;;;;;;5.15;3.50;;;2.20;99.90;;;;;;5047447;28;20037;-57
2021/12/04 08:33:37;;;;;;;4.70;3.60;;;2.10;99.90;;;;;;5041695;28;20128;-58
2021/12/04 08:36:04;;;;;;;3.83;2.47;;;2.10;99.90;;;;;;5046107;28;20127;-57
2021/12/04 08:38:30;;;;;;;3.90;2.75;;;2.10;99.90;;;;;;5046640;28;20041;-60
2021/12/04 08:40:56;;;;;;;3.17;2.58;;;2.10;99.90;;;;;;5044688;28;20524;-60
2021/12/04 08:43:22;;;;;;;3.80;2.95;;;2.10;99.90;;;;;;5044542;28;20060;-59
2021/12/04 08:45:48;;;;;;;5.00;2.90;;;2.00;99.90;;;;;;5046105;28;20076;-58
2021/12/04 08:48:14;;;;;;;4.68;2.85;;;2.00;99.90;;;;;;5046912;28;20041;-57
2021/12/04 08:50:40;;;;;;;3.45;2.47;;;1.90;99.90;;;;;;5045248;28;20043;-60
2021/12/04 08:53:07;;;;;;;5.72;3.22;;;1.90;99.90;;;;;;5044640;28;20041;-59
2021/12/04 08:55:36;;;;;;;4.38;3.03;;;1.80;99.90;;;;;;5040694;28;20045;-59
2021/12/04 08:58:03;;;;;;;3.85;2.60;;;1.80;99.90;;;;;;5046803;28;20567;-58
2021/12/04 09:00:34;;;;;;;4.82;3.38;;;1.90;99.90;;;;;;5044506;28;20049;-58
2021/12/04 09:03:00;;;;;;;4.47;3.20;;;1.90;99.90;;;;;;5048032;28;20041;-59
2021/12/04 09:05:27;;;;;;;3.85;2.38;;;1.90;99.90;;;;;;5041424;28;20045;-57
2021/12/04 09:07:53;;;;;;;3.28;2.35;;;2.00;99.90;;;;;;5048200;28;20045;-57
2021/12/04 09:10:20;;;;;;;3.53;2.50;;;2.00;99.90;;;;;;5042304;28;20155;-62
2021/12/04 09:12:47;;;;;;;5.63;1.80;;;2.10;99.90;;;;;;5047160;28;20489;-61
2021/12/04 09:15:15;;;;;;;2.85;1.98;;;2.30;99.90;;;;;;5041623;28;20785;-60
2021/12/04 09:17:41;;;;;;;3.90;2.53;;;2.30;99.90;;;;;;5047734;28;20117;-58
2021/12/04 09:20:08;;;;;;;3.95;2.38;;;2.40;99.90;;;;;;5043412;28;20338;-56
2021/12/04 09:22:36;;;;;;;3.28;2.08;;;2.50;99.90;;;;;;5047047;28;20492;-60
2021/12/04 09:25:15;;;;;;;3.08;2.20;;;2.40;99.90;;;;;;5038628;28;20048;-62
2021/12/04 09:31:19;;;;;;;2.22;1.80;;;2.60;99.90;;;;;;5042927;28;20067;-60
2021/12/04 10:00:25;;;;;;;2.35;1.40;;;2.90;99.90;;;;;;5042839;28;20416;-60
2021/12/04 10:03:20;;;;;;;1.42;1.13;;;2.90;99.90;;;;;;5048037;28;20382;-59
2021/12/04 10:14:42;;;;;;;4.65;1.05;;;3.10;99.90;;;;;;5011029;28;20402;-57
2021/12/04 10:17:35;;;;;;;2.17;1.10;;;3.20;99.90;;;;;;5045411;28;20041;-58
2021/12/04 10:34:07;;;;;;;1.35;0.98;;;3.30;99.90;;;;;;5007006;28;20068;-59
2021/12/04 10:36:36;;;;;;;7.05;2.63;;;3.40;99.90;;;;;;5046687;28;20579;-60
2021/12/04 10:39:04;;;;;;;8.90;4.38;;;3.40;99.90;;;;;;5042402;28;20045;-59
2021/12/04 10:41:33;;;;;;;3.63;1.98;;;3.40;99.90;;;;;;5041000;28;20049;-60
2021/12/04 10:44:23;;;;;;;1.33;0.90;;;3.50;99.90;;;;;;5040377;28;20037;-60
2021/12/04 10:47:04;;;;;;;2.13;1.02;;;3.60;99.90;;;;;;5039233;28;20065;-59
2021/12/04 10:49:47;;;;;;;5.72;2.95;;;3.70;99.90;;;;;;5043394;28;20037;-61
2021/12/04 10:52:33;;;;;;;9.95;4.60;;;3.60;99.90;;;;;;5042573;28;20111;-60
2021/12/04 11:01:28;;;;;;;2.13;1.15;;;3.70;99.90;;;;;;5042385;28;20576;-62
2021/12/04 11:26:17;;;;;;;1.10;0.80;;;3.70;99.90;;;;;;5043680;28;20582;-58
2021/12/04 11:37:03;;;;;;;0.80;0.60;;;3.80;99.90;;;;;;5049162;28;20102;-60
2021/12/04 11:42:23;;;;;;;1.02;0.70;;;3.70;99.90;;;;;;5040039;28;20049;-60
2021/12/04 11:44:53;;;;;;;0.45;0.45;;;3.80;99.90;;;;;;5036784;28;20041;-58
2021/12/04 11:47:20;;;;;;;0.85;0.50;;;3.90;99.90;;;;;;5043571;28;20707;-60
2021/12/04 11:49:46;;;;;;;0.93;0.68;;;4.10;99.90;;;;;;5039395;28;20428;-60
2021/12/04 11:52:20;;;;;;;1.23;0.82;;;4.10;99.90;;;;;;5040524;28;20047;-58
2021/12/04 11:55:00;;;;;;;2.58;1.52;;;4.10;99.90;;;;;;5037306;28;20075;-57
2021/12/04 11:57:33;;;;;;;0.75;0.45;;;4.10;99.90;;;;;;5042022;28;20055;-59
2021/12/04 12:00:08;;;;;;;0.65;0.52;;;4.10;99.90;;;;;;5045506;28;20045;-57
2021/12/04 12:02:34;;;;;;;1.23;0.50;;;4.10;99.90;;;;;;5044153;28;20200;-57
2021/12/04 12:04:59;;;;;;;1.50;0.80;;;4.00;99.90;;;;;;5041419;28;20143;-59
2021/12/04 12:07:27;;;;;;;1.23;1.05;;;4.00;99.90;;;;;;5044196;28;20526;-57
2021/12/04 12:10:12;;;;;;;0.90;0.70;;;4.10;99.90;;;;;;5040637;28;20037;-59
2021/12/04 12:12:41;;;;;;;1.38;1.10;;;3.90;99.90;;;;;;5041407;28;20120;-59
2021/12/04 12:15:31;;;;;;;1.48;1.02;;;3.70;99.90;;;;;;5043884;28;20123;-58
2021/12/04 12:18:13;;;;;;;1.20;0.90;;;3.70;99.90;;;;;;5049204;28;20076;-59
2021/12/04 12:20:44;;;;;;;1.52;1.15;;;3.60;99.90;;;;;;5046607;28;20049;-56
2021/12/04 12:23:12;;;;;;;1.65;1.25;;;3.60;99.90;;;;;;5045174;28;20065;-58
2021/12/04 12:37:19;;;;;;;1.33;1.08;;;3.40;99.90;;;;;;5048793;28;20596;-60
2021/12/04 12:40:08;;;;;;;1.75;1.25;;;3.50;99.90;;;;;;5044673;28;20037;-57
2021/12/04 12:42:38;;;;;;;1.25;1.00;;;3.40;99.90;;;;;;5040517;28;20502;-60
2021/12/04 12:45:21;;;;;;;1.90;0.93;;;3.50;99.90;;;;;;5042704;28;20036;-59
2021/12/04 12:48:00;;;;;;;2.47;1.50;;;3.50;99.90;;;;;;5045293;28;20045;-60
2021/12/04 12:50:38;;;;;;;2.00;1.20;;;3.40;99.90;;;;;;5043929;28;20079;-59
2021/12/04 12:53:26;;;;;;;1.52;1.38;;;3.30;99.90;;;;;;5043386;28;20500;-60
2021/12/04 12:56:05;;;;;;;2.55;1.60;;;3.10;99.90;;;;;;5041721;28;20041;-55
2021/12/04 12:58:39;;;;;;;2.50;1.80;;;2.90;99.90;;;;;;5043865;28;20085;-60
2021/12/04 13:12:49;;;;;;;1.58;1.17;;;2.90;99.90;;;;;;5044534;28;20558;-60
2021/12/04 13:15:29;;;;;;;2.60;1.73;;;2.80;99.90;;;;;;5042803;28;20048;-57
2021/12/04 13:17:55;;;;;;;2.97;1.23;;;2.70;99.90;;;;;;5045196;28;20123;-54
2021/12/04 13:20:21;;;;;;;2.53;1.70;;;2.70;99.90;;;;;;5042581;28;20069;-58
2021/12/04 13:22:48;;;;;;;2.50;1.67;;;2.60;99.90;;;;;;5048938;28;20041;-60
2021/12/04 13:25:14;;;;;;;3.20;2.30;;;2.50;99.90;;;;;;5039244;28;20124;-57
2021/12/04 13:30:14;;;;;;;5.85;2.28;;;2.40;99.90;;;;;;5041075;28;20126;-60
2021/12/04 13:32:42;;;;;;;4.35;2.65;;;2.40;99.90;;;;;;5044535;28;20132;-59
2021/12/04 13:35:17;;;;;;;3.35;2.25;;;2.40;99.90;;;;;;5040144;28;20049;-58
2021/12/04 13:37:43;;;;;;;3.85;2.35;;;2.40;99.90;;;;;;5047097;28;20107;-57
2021/12/04 13:40:13;;;;;;;3.28;2.00;;;2.30;99.90;;;;;;5043111;28;20310;-60
2021/12/04 13:42:39;;;;;;;3.28;2.13;;;2.30;99.90;;;;;;5048537;28;20041;-61
2021/12/04 13:45:09;;;;;;;3.05;2.15;;;2.30;99.90;;;;;;5042853;28;20055;-58
2021/12/04 13:47:36;;;;;;;4.88;2.97;;;2.30;99.90;;;;;;5047494;28;20045;-60
2021/12/04 13:50:20;;;;;;;3.83;2.50;;;2.30;99.90;;;;;;5042733;28;20045;-60
2021/12/04 13:52:46;;;;;;;4.25;2.17;;;2.20;99.90;;;;;;5044417;28;20037;-59
2021/12/04 13:55:13;;;;;;;3.35;2.38;;;2.20;99.90;;;;;;5042141;28;20083;-58
2021/12/04 13:57:40;;;;;;;3.65;2.22;;;2.10;99.90;;;;;;5046914;28;20114;-59
2021/12/04 14:00:08;;;;;;;3.75;2.47;;;2.10;99.90;;;;;;5057806;28;20037;-59
2021/12/04 14:02:34;;;;;;;2.15;1.42;;;2.00;99.90;;;;;;5051871;28;20135;-55
2021/12/04 14:05:04;;;;;;;2.55;1.60;;;2.10;99.90;;;;;;5042131;28;20119;-59
2021/12/04 14:07:31;;;;;;;3.40;2.47;;;2.10;99.90;;;;;;5046346;28;20535;-57
2021/12/04 14:09:57;;;;;;;3.97;2.60;;;2.10;99.90;;;;;;5042864;28;20155;-60
2021/12/04 14:12:23;;;;;;;4.53;2.75;;;2.00;99.90;;;;;;5043155;28;20117;-59
2021/12/04 14:14:49;;;;;;;3.88;2.50;;;2.10;99.90;;;;;;5033865;28;20033;-59
2021/12/04 14:17:17;;;;;;;4.22;2.42;;;2.00;99.90;;;;;;5040402;28;20416;-58
2021/12/04 14:19:43;;;;;;;3.10;1.90;;;1.90;99.90;;;;;;5042268;28;20064;-59
2021/12/04 14:22:14;;;;;;;4.30;2.42;;;1.90;99.90;;;;;;5044358;28;20408;-60
2021/12/04 14:24:48;;;;;;;3.15;2.15;;;2.00;99.90;;;;;;5041746;28;20056;-59
2021/12/04 14:27:23;;;;;;;2.15;1.40;;;2.10;99.90;;;;;;5046481;28;20056;-59
2021/12/04 14:29:55;;;;;;;3.22;2.00;;;2.20;99.90;;;;;;5043294;28;20139;-59
2021/12/04 14:32:27;;;;;;;6.05;2.10;;;2.20;99.90;;;;;;5046446;28;20037;-58
2021/12/04 14:35:01;;;;;;;2.83;1.80;;;2.10;99.90;;;;;;5038486;28;20087;-57
2021/12/04 14:37:31;;;;;;;2.40;1.88;;;2.20;99.90;;;;;;5046623;28;20045;-58
2021/12/04 14:39:57;;;;;;;3.30;1.75;;;2.20;99.90;;;;;;5041037;28;20087;-59
2021/12/04 14:42:25;;;;;;;2.60;1.83;;;2.20;99.90;;;;;;5050142;28;20111;-60
2021/12/04 14:44:55;;;;;;;2.72;1.92;;;2.10;99.90;;;;;;5041376;28;20037;-56
2021/12/04 14:47:22;;;;;;;5.53;1.60;;;2.10;99.90;;;;;;5045678;28;20041;-60
2021/12/04 14:49:52;;;;;;;2.78;1.63;;;2.10;99.90;;;;;;5041734;28;20184;-58
2021/12/04 14:52:21;;;;;;;2.80;1.60;;;2.20;99.90;;;;;;5043152;28;20025;-59
2021/12/04 14:54:49;;;;;;;2.97;1.92;;;2.10;99.90;;;;;;5045431;28;20037;-59
2021/12/04 14:57:18;;;;;;;3.67;2.30;;;2.10;99.90;;;;;;5046399;28;20040;-58
2021/12/04 14:59:44;;;;;;;2.65;1.95;;;2.20;99.90;;;;;;5041653;28;20091;-59
2021/12/04 15:02:27;;;;;;;3.22;2.22;;;2.10;99.90;;;;;;5051114;28;20064;-60
2021/12/04 15:04:53;;;;;;;3.28;1.92;;;2.10;99.90;;;;;;5039044;28;20044;-60
2021/12/04 15:07:31;;;;;;;3.30;2.17;;;2.20;99.90;;;;;;5045197;28;20033;-59
2021/12/04 15:09:57;;;;;;;4.07;2.17;;;2.20;99.90;;;;;;5042175;28;20089;-58
2021/12/04 15:12:28;;;;;;;4.15;2.58;;;2.10;99.90;;;;;;5044607;28;20040;-57
2021/12/04 15:15:00;;;;;;;2.10;1.60;;;2.10;99.90;;;;;;5039246;28;20581;-62
2021/12/04 15:17:26;;;;;;;2.55;1.73;;;2.10;99.90;;;;;;5046454;28;20047;-61
2021/12/04 15:19:54;;;;;;;2.88;1.63;;;2.10;99.90;;;;;;5045895;28;20408;-61
2021/12/04 15:22:32;;;;;;;3.55;2.47;;;2.10;99.90;;;;;;5043867;28;20063;-62
2021/12/04 15:24:58;;;;;;;3.10;2.50;;;2.10;99.90;;;;;;5038086;28;20037;-60
2021/12/04 15:27:28;;;;;;;2.13;1.80;;;2.10;99.90;;;;;;5042316;28;20041;-60
2021/12/04 15:29:55;;;;;;;3.17;2.10;;;2.10;99.90;;;;;;5038775;28;20037;-62
2021/12/04 15:32:24;;;;;;;2.65;2.05;;;2.00;99.90;;;;;;5045238;28;20037;-60
2021/12/04 15:34:57;;;;;;;2.17;1.90;;;2.10;99.90;;;;;;5039836;28;20059;-60
2021/12/04 15:37:36;;;;;;;2.83;1.85;;;2.10;99.90;;;;;;5044855;28;20087;-60
2021/12/04 15:40:06;;;;;;;2.25;1.70;;;2.10;99.90;;;;;;5041122;28;20051;-57
2021/12/04 15:42:51;;;;;;;2.38;1.75;;;2.20;99.90;;;;;;5040350;28;20063;-54
2021/12/04 15:45:39;;;;;;;2.63;1.48;;;2.20;99.90;;;;;;5040149;28;20029;-60
2021/12/04 15:51:27;;;;;;;2.30;1.15;;;2.20;99.90;;;;;;5047532;28;20052;-58
2021/12/04 15:53:58;;;;;;;8.02;1.30;;;2.30;99.90;;;;;;5042452;28;20760;-60
2021/12/04 15:56:41;;;;;;;2.10;1.00;;;2.30;99.90;;;;;;5048031;28;20574;-59
2021/12/04 15:59:11;;;;;;;0.80;0.60;;;2.30;99.90;;;;;;5044119;28;20073;-60
2021/12/04 16:01:36;;;;;;;1.05;0.73;;;2.30;99.90;;;;;;5048306;28;20040;-61
2021/12/04 16:04:02;;;;;;;1.25;0.85;;;2.30;99.90;;;;;;5044101;28;20048;-60
2021/12/04 16:06:40;;;;;;;1.02;0.77;;;2.40;99.90;;;;;;5047336;28;20059;-59
2021/12/04 16:09:06;;;;;;;1.50;0.90;;;2.40;99.90;;;;;;5045734;28;20037;-59
2021/12/04 16:11:40;;;;;;;1.20;0.90;;;2.30;99.90;;;;;;5046500;28;20043;-59